createdAt,value
2023-04-20T00:01:48.045Z,0.20
2023-04-20T00:04:16.522Z,0.43
2023-04-20T00:06:45.403Z,0.13
2023-04-20T00:09:13.957Z,0.28
2023-04-20T00:11:41.784Z,0.25
2023-04-20T00:14:09.414Z,0.10
2023-04-20T00:16:37.023Z,0.10
2023-04-20T00:19:04.694Z,0.10
2023-04-20T00:21:32.407Z,0.20
2023-04-20T00:24:00.318Z,0.10
2023-04-20T00:26:27.985Z,0.20
2023-04-20T00:28:56.560Z,0.40
2023-04-20T00:31:24.208Z,0.13
2023-04-20T00:33:51.811Z,0.20
2023-04-20T00:36:19.418Z,0.20
2023-04-20T00:38:47.018Z,0.10
2023-04-20T00:41:14.710Z,0.10
2023-04-20T00:43:54.870Z,0.32
2023-04-20T00:46:22.851Z,0.20
2023-04-20T00:48:51.928Z,0.10
2023-04-20T00:51:21.539Z,0.10
2023-04-20T00:53:49.139Z,0.20
2023-04-20T00:56:17.126Z,0.20
2023-04-20T00:58:44.823Z,0.10
2023-04-20T01:01:13.442Z,0.10
2023-04-20T01:03:41.170Z,0.10
2023-04-20T01:06:09.394Z,0.10
2023-04-20T01:08:45.285Z,0.10
2023-04-20T01:13:40.501Z,0.20
2023-04-20T01:16:08.106Z,0.10
2023-04-20T01:18:48.407Z,0.13
2023-04-20T01:21:18.878Z,0.13
2023-04-20T01:23:46.686Z,0.20
2023-04-20T01:26:16.725Z,0.20
2023-04-20T01:28:45.210Z,0.38
2023-04-20T01:31:16.425Z,0.17
2023-04-20T01:33:44.239Z,0.30
2023-04-20T01:36:12.962Z,0.43
2023-04-20T01:38:40.743Z,0.20
2023-04-20T01:41:09.978Z,0.30
2023-04-20T01:43:38.218Z,0.20
2023-04-20T01:46:06.303Z,0.10
2023-04-20T01:48:34.755Z,0.40
2023-04-20T01:51:02.421Z,0.22
2023-04-20T01:53:30.064Z,0.20
2023-04-20T01:55:59.099Z,0.20
2023-04-20T01:58:26.913Z,0.10
2023-04-20T02:00:55.436Z,0.10
2023-04-20T02:03:23.209Z,0.10
2023-04-20T02:05:50.990Z,0.20
2023-04-20T02:08:19.040Z,0.10
2023-04-20T02:10:46.811Z,0.28
2023-04-20T02:13:14.400Z,0.13
2023-04-20T02:15:42.030Z,0.10
2023-04-20T02:18:12.683Z,0.10
2023-04-20T02:20:40.304Z,0.10
2023-04-20T02:23:08.092Z,0.10
2023-04-20T02:25:36.401Z,0.22
2023-04-20T02:28:05.624Z,0.10
2023-04-20T02:30:33.199Z,0.30
2023-04-20T02:33:01.225Z,0.30
2023-04-20T02:35:28.916Z,0.15
2023-04-20T02:37:56.449Z,0.10
2023-04-20T02:40:24.137Z,0.10
2023-04-20T02:42:52.706Z,0.10
2023-04-20T02:45:20.864Z,0.20
2023-04-20T02:47:48.606Z,1.05
2023-04-20T02:50:17.277Z,0.10
2023-04-20T02:53:03.633Z,0.22
2023-04-20T02:55:34.999Z,0.30
2023-04-20T02:58:08.819Z,0.30
2023-04-20T03:01:02.186Z,0.10
2023-04-20T03:03:31.795Z,0.65
2023-04-20T03:05:59.825Z,0.15
2023-04-20T03:08:27.841Z,0.20
2023-04-20T03:10:58.698Z,0.20
2023-04-20T03:13:26.313Z,0.10
2023-04-20T03:16:01.521Z,0.20
2023-04-20T03:18:36.289Z,0.10
2023-04-20T03:21:03.957Z,0.10
2023-04-20T03:23:32.448Z,0.10
2023-04-20T03:26:02.166Z,0.20
2023-04-20T03:28:51.004Z,0.20
2023-04-20T03:31:22.505Z,0.13
2023-04-20T03:33:51.216Z,0.20
2023-04-20T03:36:19.004Z,0.10
2023-04-20T03:38:46.613Z,0.10
2023-04-20T03:41:14.808Z,0.10
2023-04-20T03:43:42.472Z,0.17
2023-04-20T03:46:10.605Z,0.15
2023-04-20T03:48:38.843Z,0.10
2023-04-20T03:51:06.526Z,0.20
2023-04-20T03:53:35.002Z,0.20
2023-04-20T03:56:02.747Z,0.20
2023-04-20T03:58:31.021Z,0.68
2023-04-20T04:01:08.705Z,0.30
2023-04-20T04:03:40.343Z,0.17
2023-04-20T04:06:11.502Z,0.30
2023-04-20T04:08:39.166Z,0.45
2023-04-20T04:11:06.927Z,1.30
2023-04-20T04:13:34.973Z,0.20
2023-04-20T04:16:05.025Z,0.40
2023-04-20T04:18:32.850Z,0.40
2023-04-20T04:21:06.699Z,0.30
2023-04-20T04:23:37.356Z,0.52
2023-04-20T04:26:12.262Z,0.30
2023-04-20T04:28:45.910Z,0.20
2023-04-20T04:31:23.596Z,0.52
2023-04-20T04:33:51.431Z,0.40
2023-04-20T04:36:28.210Z,0.30
2023-04-20T04:38:58.048Z,0.30
2023-04-20T04:41:26.104Z,0.50
2023-04-20T04:43:59.504Z,0.15
2023-04-20T04:46:30.572Z,0.30
2023-04-20T04:49:01.149Z,0.20
2023-04-20T04:51:29.649Z,0.20
2023-04-20T04:53:57.536Z,0.40
2023-04-20T04:56:25.368Z,0.30
2023-04-20T04:58:53.080Z,0.30
2023-04-20T05:01:21.309Z,0.20
2023-04-20T05:03:49.148Z,0.28
2023-04-20T05:06:16.786Z,0.40
2023-04-20T05:08:44.414Z,0.30
2023-04-20T05:11:11.952Z,0.20
2023-04-20T05:13:39.565Z,0.20
2023-04-20T05:16:07.986Z,0.40
2023-04-20T05:18:35.733Z,0.30
2023-04-20T05:21:03.340Z,0.20
2023-04-20T05:23:30.921Z,0.50
2023-04-20T05:25:58.629Z,0.28
2023-04-20T05:28:26.888Z,0.38
2023-04-20T05:30:55.356Z,0.10
2023-04-20T05:33:23.110Z,0.30
2023-04-20T05:35:51.634Z,0.10
2023-04-20T05:38:19.190Z,0.30
2023-04-20T05:40:46.955Z,0.32
2023-04-20T05:43:14.494Z,0.43
2023-04-20T05:45:42.141Z,0.50
2023-04-20T05:48:10.704Z,0.40
2023-04-20T05:50:38.664Z,0.30
2023-04-20T05:53:06.349Z,0.20
2023-04-20T05:55:33.916Z,0.20
2023-04-20T05:58:01.510Z,0.30
2023-04-20T06:00:29.202Z,0.50
2023-04-20T06:02:56.878Z,0.45
2023-04-20T06:05:24.784Z,0.43
2023-04-20T06:07:53.008Z,0.73
2023-04-20T06:10:21.017Z,0.50
2023-04-20T06:12:48.778Z,0.65
2023-04-20T06:15:16.521Z,0.30
2023-04-20T06:17:44.138Z,0.45
2023-04-20T06:20:11.850Z,0.30
2023-04-20T06:22:46.958Z,0.52
2023-04-20T06:25:18.052Z,0.50
2023-04-20T06:27:46.647Z,0.50
2023-04-20T06:30:14.817Z,0.50
2023-04-20T06:32:42.450Z,0.68
2023-04-20T06:35:10.288Z,0.25
2023-04-20T06:37:38.749Z,0.70
2023-04-20T06:40:10.223Z,0.50
2023-04-20T06:42:38.019Z,0.40
2023-04-20T06:45:08.863Z,0.32
2023-04-20T06:47:37.047Z,0.20
2023-04-20T06:50:10.161Z,0.20
2023-04-20T06:52:39.434Z,0.20
2023-04-20T06:55:07.871Z,0.20
2023-04-20T06:57:35.549Z,0.20
2023-04-20T07:00:03.226Z,0.30
2023-04-20T07:02:42.689Z,0.28
2023-04-20T07:05:11.499Z,0.40
2023-04-20T07:07:39.691Z,0.50
2023-04-20T07:10:09.251Z,0.50
2023-04-20T07:12:37.764Z,1.20
2023-04-20T07:15:06.879Z,2.15
2023-04-20T07:17:35.650Z,1.45
2023-04-20T07:20:07.333Z,0.40
2023-04-20T07:22:36.425Z,2.28
2023-04-20T07:25:06.117Z,0.88
2023-04-20T07:27:38.785Z,1.50
2023-04-20T07:30:08.852Z,1.55
2023-04-20T07:32:37.773Z,1.15
2023-04-20T07:35:05.911Z,0.70
2023-04-20T07:37:34.629Z,0.82
2023-04-20T07:40:02.595Z,0.60
2023-04-20T07:42:31.898Z,0.40
2023-04-20T07:44:59.520Z,1.20
2023-04-20T07:47:27.077Z,0.57
2023-04-20T07:49:54.902Z,0.60
2023-04-20T07:52:22.579Z,0.70
2023-04-20T07:54:50.086Z,0.88
2023-04-20T07:57:17.755Z,0.50
2023-04-20T07:59:46.657Z,0.40
2023-04-20T08:02:14.458Z,0.50
2023-04-20T08:04:42.521Z,0.52
2023-04-20T08:07:11.237Z,0.40
2023-04-20T08:09:38.918Z,0.45
2023-04-20T08:12:06.795Z,0.82
2023-04-20T08:14:34.418Z,0.70
2023-04-20T08:17:02.078Z,0.30
2023-04-20T08:19:29.706Z,0.32
2023-04-20T08:21:57.346Z,0.35
2023-04-20T08:24:24.977Z,0.38
2023-04-20T08:26:52.701Z,0.30
2023-04-20T08:29:20.290Z,0.98
2023-04-20T08:31:50.035Z,0.73
2023-04-20T08:34:19.105Z,0.30
2023-04-20T08:36:46.940Z,0.60
2023-04-20T08:39:19.439Z,1.05
2023-04-20T08:41:48.091Z,1.23
2023-04-20T08:44:15.959Z,0.32
2023-04-20T08:46:47.101Z,0.40
2023-04-20T08:49:19.636Z,0.82
2023-04-20T08:51:48.553Z,0.75
2023-04-20T08:54:17.076Z,0.80
2023-04-20T08:56:47.058Z,0.73
2023-04-20T08:59:16.883Z,0.60
2023-04-20T09:01:45.131Z,0.80
2023-04-20T09:04:21.540Z,0.70
2023-04-20T09:06:54.638Z,2.08
2023-04-20T09:09:24.259Z,1.27
2023-04-20T09:12:06.933Z,2.53
2023-04-20T09:14:45.848Z,2.50
2023-04-20T09:17:16.031Z,1.92
2023-04-20T09:19:53.585Z,1.52
2023-04-20T09:22:35.829Z,2.15
2023-04-20T09:25:17.191Z,2.60
2023-04-20T09:27:59.338Z,2.03
2023-04-20T09:30:40.428Z,1.40
2023-04-20T09:33:08.681Z,1.10
2023-04-20T09:35:38.174Z,1.48
2023-04-20T09:38:06.701Z,1.13
2023-04-20T09:40:34.898Z,1.00
2023-04-20T09:43:19.038Z,1.20
2023-04-20T09:45:46.665Z,1.13
2023-04-20T09:48:18.936Z,1.30
2023-04-20T09:50:49.793Z,1.17
2023-04-20T09:53:19.638Z,1.33
2023-04-20T09:55:48.710Z,1.40
2023-04-20T09:58:20.307Z,1.35
2023-04-20T10:00:48.196Z,1.25
2023-04-20T10:03:20.215Z,1.02
2023-04-20T10:05:48.594Z,1.60
2023-04-20T10:08:16.922Z,1.73
2023-04-20T10:10:49.380Z,1.10
2023-04-20T10:13:19.651Z,1.45
2023-04-20T10:15:47.713Z,0.93
2023-04-20T10:18:19.497Z,1.10
2023-04-20T10:20:47.280Z,0.93
2023-04-20T10:23:16.360Z,1.20
2023-04-20T10:25:54.964Z,1.60
2023-04-20T10:28:22.865Z,1.58
2023-04-20T10:30:52.459Z,1.20
2023-04-20T10:33:20.214Z,1.55
2023-04-20T10:35:52.061Z,1.05
2023-04-20T10:38:34.085Z,1.10
2023-04-20T10:41:09.231Z,1.40
2023-04-20T10:43:43.301Z,1.55
2023-04-20T10:46:22.005Z,1.55
2023-04-20T10:49:03.565Z,1.40
2023-04-20T10:51:31.572Z,1.52
2023-04-20T10:54:05.078Z,1.55
2023-04-20T10:56:47.252Z,1.50
2023-04-20T10:59:23.837Z,1.27
2023-04-20T11:01:52.459Z,2.08
2023-04-20T11:04:30.576Z,2.20
2023-04-20T11:07:07.238Z,2.45
2023-04-20T11:09:35.740Z,1.90
2023-04-20T11:12:05.564Z,2.38
2023-04-20T11:14:36.003Z,2.67
2023-04-20T11:17:04.582Z,1.85
2023-04-20T11:19:37.156Z,2.10
2023-04-20T11:22:07.489Z,1.90
2023-04-20T11:24:36.018Z,1.75
2023-04-20T11:27:04.878Z,1.65
2023-04-20T11:29:38.194Z,1.70
2023-04-20T11:32:08.225Z,1.35
2023-04-20T11:34:38.142Z,1.92
2023-04-20T11:37:05.756Z,1.58
2023-04-20T11:39:33.936Z,1.85
2023-04-20T11:42:02.124Z,1.50
2023-04-20T11:44:29.914Z,1.50
2023-04-20T11:46:58.159Z,2.08
2023-04-20T11:49:28.112Z,1.55
2023-04-20T11:51:55.940Z,2.20
2023-04-20T11:54:24.323Z,1.33
2023-04-20T11:56:52.175Z,1.88
2023-04-20T11:59:20.653Z,2.10
2023-04-20T12:01:48.665Z,1.42
2023-04-20T12:04:16.987Z,1.70
2023-04-20T12:06:45.291Z,1.98
2023-04-20T12:09:13.705Z,1.70
2023-04-20T12:11:41.433Z,2.05
2023-04-20T12:14:09.083Z,2.22
2023-04-20T12:16:36.878Z,1.75
2023-04-20T12:19:04.504Z,3.63
2023-04-20T12:21:32.547Z,2.92
2023-04-20T12:24:00.382Z,2.30
2023-04-20T12:26:37.346Z,2.35
2023-04-20T12:29:07.217Z,1.80
2023-04-20T12:31:36.022Z,2.33
2023-04-20T12:34:04.258Z,2.28
2023-04-20T12:36:32.561Z,4.63
2023-04-20T12:39:00.522Z,9.63
2023-04-20T12:41:28.346Z,2.08
2023-04-20T12:43:56.458Z,2.38
2023-04-20T12:46:24.199Z,3.17
2023-04-20T12:48:51.820Z,10.77
2023-04-20T12:51:19.414Z,3.83
2023-04-20T12:53:47.153Z,3.42
2023-04-20T12:56:15.318Z,3.35
2023-04-20T12:58:43.521Z,2.40
2023-04-20T13:01:11.153Z,2.85
2023-04-20T13:03:38.977Z,2.97
2023-04-20T13:06:07.117Z,3.25
2023-04-20T13:08:37.051Z,2.45
2023-04-20T13:11:04.858Z,2.10
2023-04-20T13:13:32.388Z,2.45
2023-04-20T13:16:00.093Z,2.70
2023-04-20T13:18:27.734Z,2.58
2023-04-20T13:20:55.442Z,2.30
2023-04-20T13:23:24.665Z,2.53
2023-04-20T13:25:59.564Z,2.10
2023-04-20T13:28:30.797Z,3.40
2023-04-20T13:30:58.519Z,2.95
2023-04-20T13:33:26.386Z,4.30
2023-04-20T13:35:53.891Z,3.30
2023-04-20T13:38:21.459Z,2.55
2023-04-20T13:40:49.155Z,2.60
2023-04-20T13:43:18.015Z,2.40
2023-04-20T13:45:47.107Z,2.85
2023-04-20T13:48:14.747Z,3.88
2023-04-20T13:50:42.450Z,2.72
2023-04-20T13:53:09.962Z,1.83
2023-04-20T13:55:37.526Z,3.15
2023-04-20T13:58:05.052Z,3.13
2023-04-20T14:00:34.804Z,2.92
2023-04-20T14:03:02.952Z,2.95
2023-04-20T14:05:30.658Z,2.67
2023-04-20T14:08:01.683Z,2.90
2023-04-20T14:10:29.447Z,2.38
2023-04-20T14:12:57.424Z,2.83
2023-04-20T14:15:25.007Z,1.70
2023-04-20T14:17:53.083Z,3.20
2023-04-20T14:20:20.717Z,2.70
2023-04-20T14:22:48.329Z,3.08
2023-04-20T14:25:16.053Z,2.72
2023-04-20T14:27:43.580Z,3.25
2023-04-20T14:30:11.730Z,2.75
2023-04-20T14:32:40.285Z,2.58
2023-04-20T14:35:09.240Z,3.28
2023-04-20T14:37:36.810Z,2.63
2023-04-20T14:40:07.239Z,2.92
2023-04-20T14:42:34.774Z,2.50
2023-04-20T14:45:02.365Z,2.90
2023-04-20T14:47:29.938Z,2.38
2023-04-20T14:49:57.494Z,2.80
2023-04-20T14:52:25.249Z,3.47
2023-04-20T14:54:52.810Z,3.53
2023-04-20T14:57:20.595Z,2.90
2023-04-20T14:59:48.055Z,3.15
2023-04-20T15:02:15.695Z,2.00
2023-04-20T15:04:43.400Z,2.78
2023-04-20T15:07:11.214Z,2.85
2023-04-20T15:09:38.900Z,3.28
2023-04-20T15:12:06.464Z,3.08
2023-04-20T15:14:34.601Z,3.53
2023-04-20T15:17:03.292Z,2.83
2023-04-20T15:19:30.977Z,6.07
2023-04-20T15:21:58.496Z,2.72
2023-04-20T15:24:26.141Z,3.05
2023-04-20T15:26:53.937Z,2.85
2023-04-20T15:29:21.555Z,3.40
2023-04-20T15:31:49.202Z,3.05
2023-04-20T15:34:17.314Z,2.95
2023-04-20T15:36:46.016Z,2.65
2023-04-20T15:39:13.688Z,3.53
2023-04-20T15:41:41.302Z,3.80
2023-04-20T15:44:08.835Z,2.95
2023-04-20T15:46:37.936Z,3.65
2023-04-20T15:49:05.611Z,3.65
2023-04-20T15:51:33.246Z,3.17
2023-04-20T15:54:02.707Z,3.70
2023-04-20T15:56:30.976Z,2.92
2023-04-20T15:58:58.571Z,2.63
2023-04-20T16:01:26.231Z,4.55
2023-04-20T16:03:54.167Z,3.47
2023-04-20T16:06:21.964Z,6.60
2023-04-20T16:08:53.151Z,4.35
2023-04-20T16:11:21.928Z,3.88
2023-04-20T16:13:49.603Z,5.60
2023-04-20T16:16:17.303Z,2.78
2023-04-20T16:18:44.992Z,3.35
2023-04-20T16:21:12.632Z,3.63
2023-04-20T16:23:40.308Z,4.05
2023-04-20T16:26:07.877Z,3.33
2023-04-20T16:28:35.532Z,3.53
2023-04-20T16:31:03.134Z,3.60
2023-04-20T16:33:32.218Z,3.38
2023-04-20T16:36:01.796Z,3.60
2023-04-20T16:38:29.578Z,3.33
2023-04-20T16:40:57.314Z,3.17
2023-04-20T16:43:25.037Z,3.55
2023-04-20T16:45:52.772Z,3.63
2023-04-20T16:48:21.057Z,5.45
2023-04-20T16:50:49.018Z,3.85
2023-04-20T16:53:17.345Z,3.53
2023-04-20T16:55:45.010Z,3.70
2023-04-20T16:58:12.874Z,3.13
2023-04-20T17:00:40.694Z,3.22
2023-04-20T17:03:10.865Z,3.67
2023-04-20T17:05:41.650Z,3.38
2023-04-20T17:08:09.950Z,4.47
2023-04-20T17:10:38.572Z,4.13
2023-04-20T17:13:06.235Z,4.28
2023-04-20T17:15:34.094Z,4.40
2023-04-20T17:18:02.299Z,4.18
2023-04-20T17:20:29.894Z,3.72
2023-04-20T17:22:57.494Z,3.80
2023-04-20T17:25:25.039Z,3.38
2023-04-20T17:27:52.769Z,3.72
2023-04-20T17:30:21.165Z,3.58
2023-04-20T17:32:48.809Z,3.08
2023-04-20T17:35:16.476Z,3.22
2023-04-20T17:37:44.236Z,3.72
2023-04-20T17:40:12.309Z,3.85
2023-04-20T17:42:39.911Z,3.78
2023-04-20T17:45:07.858Z,3.58
2023-04-20T17:47:38.597Z,3.72
2023-04-20T17:50:06.923Z,4.00
2023-04-20T17:52:34.733Z,4.10
2023-04-20T17:55:02.545Z,4.00
2023-04-20T17:57:30.969Z,3.40
2023-04-20T18:00:01.057Z,3.55
2023-04-20T18:02:28.765Z,3.72
2023-04-20T18:04:59.764Z,4.15
2023-04-20T18:07:28.210Z,4.50
2023-04-20T18:09:58.664Z,3.58
2023-04-20T18:12:26.277Z,4.47
2023-04-20T18:14:53.839Z,4.80
2023-04-20T18:17:21.543Z,4.43
2023-04-20T18:19:52.227Z,5.22
2023-04-20T18:22:19.857Z,5.00
2023-04-20T18:24:47.415Z,4.28
2023-04-20T18:27:15.051Z,5.80
2023-04-20T18:29:42.675Z,3.72
2023-04-20T18:32:10.343Z,3.60
2023-04-20T18:34:37.872Z,3.45
2023-04-20T18:37:05.627Z,3.88
2023-04-20T18:39:33.241Z,3.83
2023-04-20T18:42:00.959Z,3.92
2023-04-20T18:44:29.254Z,3.53
2023-04-20T18:46:57.005Z,2.88
2023-04-20T18:49:24.739Z,4.10
2023-04-20T18:51:52.345Z,4.57
2023-04-20T18:54:20.147Z,3.78
2023-04-20T18:56:50.079Z,4.05
2023-04-20T18:59:18.560Z,3.88
2023-04-20T19:01:46.125Z,4.10
2023-04-20T19:04:13.743Z,3.65
2023-04-20T19:06:41.376Z,3.95
2023-04-20T19:09:09.195Z,3.38
2023-04-20T19:11:36.827Z,4.07
2023-04-20T19:14:04.448Z,3.97
2023-04-20T19:16:33.826Z,3.38
2023-04-20T19:19:01.779Z,3.58
2023-04-20T19:21:29.446Z,3.85
2023-04-20T19:23:57.042Z,3.67
2023-04-20T19:26:25.051Z,4.93
2023-04-20T19:28:53.461Z,4.78
2023-04-20T19:31:21.103Z,4.65
2023-04-20T19:33:48.734Z,4.22
2023-04-20T19:36:18.332Z,3.65
2023-04-20T19:38:46.356Z,4.30
2023-04-20T19:41:14.011Z,4.65
2023-04-20T19:43:41.659Z,4.00
2023-04-20T19:46:09.949Z,4.63
2023-04-20T19:48:38.011Z,4.53
2023-04-20T19:51:06.646Z,4.32
2023-04-20T19:53:34.384Z,4.10
2023-04-20T19:56:03.590Z,4.75
2023-04-20T19:58:32.542Z,4.05
2023-04-20T20:01:00.214Z,3.80
2023-04-20T20:03:28.455Z,3.92
2023-04-20T20:05:56.213Z,4.55
2023-04-20T20:08:23.916Z,4.40
2023-04-20T20:10:52.887Z,3.63
2023-04-20T20:13:20.529Z,3.97
2023-04-20T20:15:48.414Z,3.75
2023-04-20T20:18:15.998Z,4.35
2023-04-20T20:20:43.597Z,4.63
2023-04-20T20:23:11.354Z,3.53
2023-04-20T20:25:39.644Z,4.07
2023-04-20T20:28:07.195Z,4.63
2023-04-20T20:30:34.871Z,4.20
2023-04-20T20:33:02.451Z,4.63
2023-04-20T20:35:33.498Z,4.10
2023-04-20T20:38:01.182Z,4.00
2023-04-20T20:40:29.062Z,4.63
2023-04-20T20:42:57.463Z,3.90
2023-04-20T20:45:25.040Z,5.05
2023-04-20T20:47:52.749Z,4.30
2023-04-20T20:50:20.707Z,4.25
2023-04-20T20:52:48.382Z,4.07
2023-04-20T20:55:16.297Z,4.00
2023-04-20T20:57:43.917Z,4.07
2023-04-20T21:00:12.025Z,4.70
2023-04-20T21:02:39.917Z,4.18
2023-04-20T21:05:07.782Z,4.53
2023-04-20T21:07:36.020Z,4.07
2023-04-20T21:10:03.911Z,3.92
2023-04-20T21:12:31.485Z,4.47
2023-04-20T21:14:59.222Z,4.32
2023-04-20T21:17:27.015Z,3.90
2023-04-20T21:19:54.735Z,4.60
2023-04-20T21:22:22.611Z,4.30
2023-04-20T21:24:50.658Z,4.45
2023-04-20T21:27:18.326Z,4.00
2023-04-20T21:29:45.866Z,4.50
2023-04-20T21:32:13.509Z,4.18
2023-04-20T21:34:41.049Z,4.25
2023-04-20T21:37:09.124Z,3.80
2023-04-20T21:39:36.743Z,4.25
2023-04-20T21:42:04.603Z,3.80
2023-04-20T21:44:32.183Z,3.63
2023-04-20T21:47:02.362Z,4.13
2023-04-20T21:49:30.070Z,4.80
2023-04-20T21:51:57.764Z,4.47
2023-04-20T21:54:25.340Z,4.55
2023-04-20T21:56:52.871Z,4.35
2023-04-20T21:59:20.614Z,4.30
2023-04-20T22:01:48.391Z,3.95
2023-04-20T22:04:16.610Z,3.90
2023-04-20T22:06:44.599Z,4.45
2023-04-20T22:09:12.196Z,4.30
2023-04-20T22:11:40.308Z,3.70
2023-04-20T22:14:07.924Z,4.25
2023-04-20T22:16:37.869Z,4.35
2023-04-20T22:19:05.673Z,3.95
2023-04-20T22:21:33.313Z,4.25
2023-04-20T22:24:01.239Z,4.47
2023-04-20T22:26:28.906Z,4.70
2023-04-20T22:28:56.602Z,4.57
2023-04-20T22:31:24.318Z,4.00
2023-04-20T22:33:51.901Z,3.85
2023-04-20T22:36:20.340Z,4.15
2023-04-20T22:38:47.989Z,4.60
2023-04-20T22:41:17.438Z,5.15
2023-04-20T22:43:45.359Z,4.63
2023-04-20T22:46:12.958Z,3.83
2023-04-20T22:48:41.687Z,4.03
2023-04-20T22:51:09.298Z,4.22
2023-04-20T22:53:36.882Z,4.43
2023-04-20T22:56:08.273Z,4.22
2023-04-20T22:58:36.125Z,4.28
2023-04-20T23:01:03.872Z,4.40
2023-04-20T23:03:32.803Z,4.25
2023-04-20T23:06:00.570Z,4.20
2023-04-20T23:08:28.647Z,5.15
2023-04-20T23:10:56.480Z,5.05
2023-04-20T23:13:26.523Z,4.15
2023-04-20T23:15:54.386Z,4.80
2023-04-20T23:18:22.091Z,3.85
2023-04-20T23:20:49.627Z,3.60
2023-04-20T23:23:17.179Z,4.28
2023-04-20T23:25:44.823Z,4.22
2023-04-20T23:28:12.554Z,4.38
2023-04-20T23:30:40.126Z,4.13
2023-04-20T23:33:07.769Z,4.30
2023-04-20T23:35:36.938Z,4.45
2023-04-20T23:38:05.360Z,4.75
2023-04-20T23:40:33.024Z,4.95
2023-04-20T23:43:00.656Z,4.40
2023-04-20T23:45:28.288Z,4.15
2023-04-20T23:47:56.004Z,3.85
2023-04-20T23:50:23.633Z,4.32
2023-04-20T23:52:51.216Z,4.88
2023-04-20T23:55:18.952Z,3.95
2023-04-20T23:57:47.322Z,4.38
